Northwood, IA

6:22 AM CDT on September 30, 2014 (GMT -0500)
MesoWest GLENVI MN US UPR | Change Station
CLOSE
Current Station
Personal Weather Station
Location: Glenville, MN
Elevation: 1232 ft
Nearby Weather Stations

Elev 1232 ft 43.56 °N, 93.27 °W | Updated 57 minutes ago

Overcast
Overcast
43 °F
Feels Like 43 °F
N
Wind Variable Wind from North
Gusts 0.0 mph

Today
High -- | Low -- °F
--% Chance of Precip.
Yesterday
High -- | Low -- °F
Precip. -- in
7:09 AM 6:55 PM
Waxing Crescent, 36% visible
Pressure 30.02 in
Visibility 10.0 miles
Clouds Overcast 500 ft
Windchill 43 °F
Dew Point Not available.
Humidity Not available.
Rainfall -999.00 in
Snow Depth Not available.
UV 0 out of 12
Pollen 2.70 out of 12
Air Quality Not available.
Flu Activity Not available.
METAR KAEL 301111Z AUTO 10012KT 10SM OVC005 08/07 A3002 RMK AO2

More Conditions Fewer Conditions

Pressure 30.02 in
Visibility 10.0 miles
Clouds Overcast 500 ft
Windchill 43 °F
Dew Point Not available.
Humidity Not available.
Rainfall -999.00 in
Snow Depth Not available.
UV 0 out of 12
Pollen 2.70 out of 12
Air Quality Not available.
Flu Activity Not available.
METAR KAEL 301111Z AUTO 10012KT 10SM OVC005 08/07 A3002 RMK AO2

More Conditions Fewer Conditions

10-Day Weather Forecast

Almanac

Astronomy

Sep. 30, 2014 Rise Set
Actual Time 7:09 AM CDT 6:55 PM CDT
Civil Twilight 6:40 AM CDT 7:24 PM CDT
Nautical Twilight 6:07 AM CDT 7:57 PM CDT
Astronomical Twilight 5:33 AM CDT 8:30 PM CDT
Moon 1:25 PM CDT 11:18 PM CDT
Length of Visible Light 12h 43m
Length of Day
11h 46m
Tomorrow will be 2m 56s shorter.
Waxing Crescent, 36% of the Moon is Illuminated
Today
Waxing Crescent
Oct 1
First Quarter
Oct 8
Full
Oct 15
Last Quarter
Oct 23
New

Today's Extremes

State Highs State Lows

Community

WunderPhotos

Upload Photos

1,757,617 photos uploaded!

WunderBlogs® & News

Nearby

Snow Depth

Station Depth Elevation
No new snow has been reported.

Earthquake Activity

City Distance Mag. Time & Date
No recent earthquake activity has been reported nearby.
Minimum magnitude displayed is 2.5.

Coastal Water Temperatures

Place Temperature
No Stations Reporting

Nearby Weather Stations